Time;durP1;ratioP1;P1;durP2;ratioP2;P2;SDS_P1;SDS_P2;PMS_P1;PMS_P2;Temp;Humidity;BMP_temperature;BMP_pressure;BME280_temperature;BME280_humidity;BME280_pressure;Samples;Min_cycle;Max_cycle;Signal;HPM_P1;HPM_P2
2021/12/22 00:02:17;;;;;;;18.13;16.23;;;;;;;-3.36;57.86;93433.56;5065061;28;20221;-80
2021/12/22 00:04:45;;;;;;;17.47;15.67;;;;;;;-3.36;59.35;93437.84;5066567;28;20204;-82
2021/12/22 00:07:12;;;;;;;17.53;15.83;;;;;;;-3.31;60.08;93453.44;5060835;28;20260;-81
2021/12/22 00:09:37;;;;;;;16.90;15.30;;;;;;;-3.61;59.80;93431.44;5064826;28;20249;-80
2021/12/22 00:12:03;;;;;;;18.40;16.43;;;;;;;-3.58;60.48;93429.28;5066051;28;20209;-80
2021/12/22 00:14:29;;;;;;;16.70;15.20;;;;;;;-3.79;61.39;93425.81;5062509;28;20223;-80
2021/12/22 00:16:54;;;;;;;17.53;15.83;;;;;;;-3.53;60.58;93418.56;5063695;28;20233;-80
2021/12/22 00:19:20;;;;;;;19.07;17.27;;;;;;;-3.60;60.97;93425.34;5065409;28;20186;-80
2021/12/22 00:21:45;;;;;;;18.20;15.27;;;;;;;-3.95;62.11;93401.25;5090960;28;20228;-80
2021/12/22 00:24:11;;;;;;;18.73;16.87;;;;;;;-4.15;63.13;93394.25;5066476;28;20189;-80
2021/12/22 00:26:36;;;;;;;19.67;17.87;;;;;;;-4.02;63.68;93400.38;5066600;28;20220;-80
2021/12/22 00:29:02;;;;;;;18.63;16.70;;;;;;;-4.07;63.38;93409.47;5064223;28;20250;-80
2021/12/22 00:31:28;;;;;;;22.97;19.30;;;;;;;-4.36;64.30;93417.03;5065752;28;20554;-80
2021/12/22 00:33:55;;;;;;;25.10;20.37;;;;;;;-4.17;64.44;93414.03;5065075;28;20192;-80
2021/12/22 00:36:25;;;;;;;21.27;18.97;;;;;;;-4.08;65.22;93461.44;5065537;28;20293;-81
2021/12/22 00:38:52;;;;;;;20.63;18.70;;;;;;;-4.19;65.20;93464.38;5067895;28;20253;-80
2021/12/22 00:41:18;;;;;;;22.07;19.00;;;;;;;-4.04;64.41;93465.22;5064947;28;20221;-80
2021/12/22 00:43:44;;;;;;;21.60;19.30;;;;;;;-4.37;65.40;93430.75;5081974;28;20185;-77
2021/12/22 00:46:12;;;;;;;22.27;19.67;;;;;;;-4.14;64.61;93446.84;5065342;28;20233;-85
2021/12/22 00:48:37;;;;;;;24.77;20.53;;;;;;;-4.49;66.50;93467.75;5066850;28;20186;-81
2021/12/22 00:51:03;;;;;;;28.90;21.20;;;;;;;-4.62;66.97;93431.84;5065754;28;20236;-80
2021/12/22 00:53:28;;;;;;;25.43;19.60;;;;;;;-4.54;67.67;93463.16;5067838;28;20714;-80
2021/12/22 00:55:54;;;;;;;22.97;20.00;;;;;;;-4.47;67.98;93474.28;5065751;28;22836;-80
2021/12/22 00:58:20;;;;;;;30.10;19.87;;;;;;;-4.71;68.90;93473.56;5067675;28;20223;-80
2021/12/22 01:00:47;;;;;;;24.97;20.17;;;;;;;-4.59;68.68;93479.91;5068333;28;20252;-80
2021/12/22 01:03:14;;;;;;;22.37;19.30;;;;;;;-4.92;69.23;93462.19;5070710;28;20193;-80
2021/12/22 01:05:40;;;;;;;17.83;15.97;;;;;;;-4.90;69.37;93407.81;5071535;28;20235;-80
2021/12/22 01:08:06;;;;;;;18.17;16.40;;;;;;;-4.58;67.33;93407.63;5071677;28;20193;-80
2021/12/22 01:10:31;;;;;;;21.33;14.47;;;;;;;-4.14;66.79;93457.03;5071276;28;20289;-80
2021/12/22 01:12:59;;;;;;;18.37;15.93;;;;;;;-4.43;65.83;93454.31;5071723;28;20193;-80
2021/12/22 01:15:25;;;;;;;22.23;16.50;;;;;;;-4.89;66.93;93404.28;5071358;28;20216;-82
2021/12/22 01:18:00;;;;;;;17.40;13.57;;;;;;;-4.85;67.88;93452.16;5071828;28;20208;-81
2021/12/22 01:20:31;;;;;;;15.47;13.87;;;;;;;-4.89;67.03;93432.28;5070909;28;20242;-81
2021/12/22 01:23:04;;;;;;;15.93;14.23;;;;;;;-5.27;67.30;93370.25;5071112;28;20208;-80
2021/12/22 01:25:36;;;;;;;14.83;13.30;;;;;;;-4.77;66.42;93441.13;5071493;28;20217;-81
2021/12/22 01:28:02;;;;;;;15.00;13.50;;;;;;;-5.56;66.83;93309.81;5070787;28;20182;-80
2021/12/22 01:30:30;;;;;;;16.20;13.40;;;;;;;-4.74;67.58;93445.91;5071557;28;20353;-81
2021/12/22 01:32:58;;;;;;;13.10;11.87;;;;;;;-5.23;67.60;93397.75;5071239;28;20184;-81
2021/12/22 01:35:27;;;;;;;15.80;14.60;;;;;;;-4.96;66.72;93427.88;5069925;28;20197;-81
2021/12/22 01:37:53;;;;;;;14.60;13.30;;;;;;;-5.05;66.45;93413.59;5070741;28;20213;-80
2021/12/22 01:40:20;;;;;;;15.47;13.87;;;;;;;-5.23;67.99;93413.00;5070362;28;20197;-80
2021/12/22 01:42:46;;;;;;;14.80;13.30;;;;;;;-5.08;67.87;93426.66;5071119;28;20185;-80
2021/12/22 01:45:47;;;;;;;17.73;15.93;;;;;;;-4.99;69.70;93405.28;5070612;28;20174;-80
2021/12/22 01:51:05;;;;;;;19.37;17.47;;;;;;;-5.11;70.28;93406.63;5068923;28;20248;-80
2021/12/22 01:53:38;;;;;;;19.97;16.57;;;;;;;-5.19;68.65;93409.19;5070315;28;20188;-80
2021/12/22 01:58:43;;;;;;;21.17;17.43;;;;;;;-5.13;69.60;93433.19;5070835;28;20204;-80
2021/12/22 02:01:10;;;;;;;23.33;17.27;;;;;;;-5.53;70.83;93400.25;5071492;28;20230;-80
2021/12/22 02:03:37;;;;;;;23.83;19.10;;;;;;;-5.41;71.81;93422.63;5070327;28;20232;-80
2021/12/22 02:06:04;;;;;;;23.10;17.67;;;;;;;-5.56;70.53;93358.13;5069936;28;20213;-80
2021/12/22 02:08:30;;;;;;;20.23;18.10;;;;;;;-4.99;70.37;93425.66;5071209;28;20169;-80
2021/12/22 02:10:55;;;;;;;23.57;17.70;;;;;;;-5.38;71.21;93422.28;5070176;28;20296;-80
2021/12/22 02:13:27;;;;;;;19.33;16.73;;;;;;;-5.50;71.72;93392.28;5071470;28;20212;-80
2021/12/22 02:15:53;;;;;;;20.77;17.57;;;;;;;-5.34;71.16;93426.09;5073674;28;20225;-80
2021/12/22 02:18:20;;;;;;;19.93;17.57;;;;;;;-5.38;71.58;93419.75;5070981;28;20224;-80
2021/12/22 02:20:48;;;;;;;22.83;19.27;;;;;;;-5.56;71.75;93426.81;5070407;28;20332;-80
2021/12/22 02:23:13;;;;;;;18.87;16.97;;;;;;;-5.56;72.46;93426.81;5071430;28;20189;-81
2021/12/22 02:25:49;;;;;;;19.20;16.43;;;;;;;-6.17;72.22;93341.94;5069702;28;20236;-80
2021/12/22 02:28:20;;;;;;;19.67;17.07;;;;;;;-6.00;72.36;93359.53;5071378;28;20188;-80
2021/12/22 02:30:46;;;;;;;20.03;17.90;;;;;;;-5.85;72.92;93403.66;5069604;28;20264;-80
2021/12/22 02:38:41;;;;;;;17.63;15.77;;;;;;;-6.21;72.12;93363.53;5070009;28;20212;-80
2021/12/22 02:41:11;;;;;;;16.97;15.33;;;;;;;-5.43;72.52;93399.09;5068736;28;20220;-80
2021/12/22 02:43:45;;;;;;;16.53;14.93;;;;;;;-5.51;71.18;93394.03;5071109;28;20174;-80
2021/12/22 02:46:12;;;;;;;18.87;14.30;;;;;;;-5.77;71.32;93398.53;5071378;28;20237;-80
2021/12/22 02:48:38;;;;;;;16.20;14.60;;;;;;;-6.22;72.12;93334.78;5069901;28;20209;-80
2021/12/22 02:51:03;;;;;;;17.57;15.53;;;;;;;-6.44;72.24;93304.19;5069859;28;20225;-81
2021/12/22 02:53:39;;;;;;;17.00;15.20;;;;;;;-5.90;72.52;93403.34;5071151;28;20286;-80
2021/12/22 03:01:39;;;;;;;17.17;15.27;;;;;;;-5.75;72.68;93385.66;5069231;28;20224;-80
2021/12/22 03:04:12;;;;;;;16.57;14.57;;;;;;;-6.35;73.14;93362.41;5070521;28;20185;-80
2021/12/22 03:06:53;;;;;;;17.37;15.33;;;;;;;-6.12;73.37;93403.22;5068859;28;20220;-81
2021/12/22 03:09:23;;;;;;;19.60;16.67;;;;;;;-6.05;73.83;93399.88;5068973;28;20197;-80
2021/12/22 03:11:49;;;;;;;17.17;15.63;;;;;;;-5.84;73.40;93407.81;5068793;28;20221;-81
2021/12/22 03:14:16;;;;;;;19.27;17.03;;;;;;;-6.01;74.01;93405.44;5071294;28;20190;-80
2021/12/22 03:16:44;;;;;;;18.80;16.80;;;;;;;-5.89;72.95;93374.47;5069605;28;20277;-80
2021/12/22 03:19:16;;;;;;;18.33;16.03;;;;;;;-5.84;73.16;93402.72;5070295;28;20189;-80
2021/12/22 03:21:42;;;;;;;18.33;15.80;;;;;;;-6.07;73.57;93371.28;5069045;28;20213;-80
2021/12/22 03:24:10;;;;;;;17.90;16.17;;;;;;;-5.98;73.82;93389.88;5069268;28;20198;-80
2021/12/22 03:26:41;;;;;;;17.37;15.70;;;;;;;-5.86;72.81;93341.09;5092773;28;20240;-80
2021/12/22 03:29:09;;;;;;;16.93;15.30;;;;;;;-5.87;71.57;93354.75;5069726;28;20181;-80
2021/12/22 03:31:35;;;;;;;23.07;17.70;;;;;;;-6.37;73.17;93333.88;5056856;28;20221;-80
2021/12/22 03:34:00;;;;;;;18.83;16.80;;;;;;;-5.92;72.49;93399.41;5050127;28;20174;-80
2021/12/22 03:36:26;;;;;;;18.83;16.50;;;;;;;-6.22;73.96;93407.66;5047279;28;20218;-80
2021/12/22 03:38:51;;;;;;;23.17;16.80;;;;;;;-6.29;74.30;93406.72;5048398;28;20225;-80
2021/12/22 03:41:17;;;;;;;29.00;19.67;;;;;;;-6.42;74.76;93397.03;5048709;28;20228;-80
2021/12/22 03:43:42;;;;;;;23.90;18.57;;;;;;;-6.47;74.93;93391.63;5047632;28;20225;-80
2021/12/22 03:46:08;;;;;;;26.67;18.00;;;;;;;-6.28;75.13;93398.94;5048764;28;20226;-80
2021/12/22 03:48:33;;;;;;;28.23;19.47;;;;;;;-6.40;75.23;93390.06;5049807;28;20194;-80
2021/12/22 03:50:59;;;;;;;30.87;20.87;;;;;;;-6.73;75.08;93356.25;5057158;28;20218;-81
2021/12/22 03:53:24;;;;;;;28.47;20.00;;;;;;;-6.25;74.82;93388.47;5069539;28;20203;-81
2021/12/22 03:55:50;;;;;;;25.97;19.03;;;;;;;-6.24;74.94;93401.97;5069571;28;20251;-80
2021/12/22 03:58:16;;;;;;;29.97;21.17;;;;;;;-6.37;75.32;93404.97;5070046;28;20221;-81
2021/12/22 04:00:43;;;;;;;25.53;18.40;;;;;;;-6.41;75.61;93411.31;5068943;28;20275;-75
2021/12/22 04:03:15;;;;;;;28.50;17.17;;;;;;;-6.54;75.21;93389.88;5067476;28;20193;-74
2021/12/22 04:05:41;;;;;;;20.77;16.30;;;;;;;-6.34;75.19;93412.28;5069595;28;20277;-74
2021/12/22 04:08:07;;;;;;;20.97;15.47;;;;;;;-6.50;75.66;93402.09;5070302;28;20197;-74
2021/12/22 04:10:32;;;;;;;17.57;15.83;;;;;;;-6.25;74.87;93405.44;5070452;28;20273;-74
2021/12/22 04:12:58;;;;;;;16.13;14.73;;;;;;;-6.33;74.91;93411.31;5070914;28;20264;-74
2021/12/22 04:15:27;;;;;;;16.27;14.87;;;;;;;-5.94;73.26;93412.25;5068533;28;20201;-74
2021/12/22 04:17:53;;;;;;;17.27;14.33;;;;;;;-6.43;74.63;93414.97;5067216;28;20213;-74
2021/12/22 04:20:19;;;;;;;16.57;15.07;;;;;;;-6.55;75.01;93416.22;5068242;28;20180;-74
2021/12/22 04:22:45;;;;;;;16.30;14.90;;;;;;;-6.55;75.32;93401.78;5067901;28;20272;-74
2021/12/22 04:25:19;;;;;;;15.63;14.40;;;;;;;-6.58;75.56;93419.09;5067310;28;20190;-73
2021/12/22 04:27:44;;;;;;;15.10;13.60;;;;;;;-6.63;75.32;93415.25;5049541;28;20218;-74
2021/12/22 04:30:10;;;;;;;14.83;13.47;;;;;;;-6.49;75.08;93434.19;5049358;28;20224;-74
2021/12/22 04:32:35;;;;;;;15.17;13.97;;;;;;;-6.63;74.50;93409.41;5069517;28;20253;-74
2021/12/22 04:35:01;;;;;;;14.57;13.37;;;;;;;-6.31;73.75;93406.06;5071212;28;20201;-75
2021/12/22 04:37:26;;;;;;;13.83;12.67;;;;;;;-6.71;74.09;93400.00;5072372;28;20229;-75
2021/12/22 04:39:52;;;;;;;14.37;12.87;;;;;;;-6.75;74.31;93377.63;5073344;28;20224;-75
2021/12/22 04:42:19;;;;;;;14.57;13.27;;;;;;;-6.57;74.17;93398.63;5070777;28;20221;-78
2021/12/22 04:44:45;;;;;;;14.10;13.00;;;;;;;-6.43;73.41;93425.13;5073260;28;20316;-78
2021/12/22 04:47:11;;;;;;;15.20;13.87;;;;;;;-6.07;73.58;93398.47;5068689;28;20278;-80
2021/12/22 04:49:37;;;;;;;14.13;13.03;;;;;;;-6.32;73.40;93423.09;5070495;28;20198;-78
2021/12/22 04:52:07;;;;;;;20.83;14.60;;;;;;;-6.85;73.49;93356.69;5071609;28;20292;-78
2021/12/22 04:54:42;;;;;;;14.30;13.20;;;;;;;-6.55;73.46;93424.63;5070176;28;20257;-78
2021/12/22 04:57:07;;;;;;;17.27;14.47;;;;;;;-6.78;74.32;93408.41;5068826;28;20314;-78
2021/12/22 04:59:33;;;;;;;16.50;14.93;;;;;;;-6.53;74.51;93404.97;5071701;28;20205;-79
2021/12/22 05:01:58;;;;;;;17.03;14.27;;;;;;;-6.83;73.30;93375.88;5067603;28;20236;-83
2021/12/22 05:04:24;;;;;;;14.63;13.33;;;;;;;-6.47;73.17;93406.09;5070234;28;20181;-79
2021/12/22 05:06:49;;;;;;;14.77;13.57;;;;;;;-6.60;73.49;93388.78;5070029;28;20264;-79
2021/12/22 05:09:15;;;;;;;13.63;12.57;;;;;;;-6.44;73.13;93421.78;5071417;28;20188;-89
2021/12/22 05:11:40;;;;;;;13.47;12.50;;;;;;;-6.56;73.52;93429.84;5071542;28;20237;-84
2021/12/22 05:14:08;;;;;;;13.47;12.53;;;;;;;-6.43;73.20;93423.38;5072824;28;20182;-84
2021/12/22 05:16:33;;;;;;;13.90;12.83;;;;;;;-6.42;72.82;93447.00;5071836;28;20221;-83
2021/12/22 05:19:11;;;;;;;14.23;12.90;;;;;;;-7.03;73.30;93366.16;5070624;28;20205;-84
2021/12/22 05:21:37;;;;;;;13.00;12.00;;;;;;;-6.48;74.10;93445.91;5068662;28;20223;-85
2021/12/22 05:24:03;;;;;;;13.47;12.47;;;;;;;-6.88;73.30;93410.31;5071218;28;20189;-84
2021/12/22 05:26:29;;;;;;;14.17;13.03;;;;;;;-6.95;73.56;93424.53;5069473;28;21148;-85
2021/12/22 05:28:55;;;;;;;12.30;11.40;;;;;;;-6.86;73.44;93447.25;5071901;28;20197;-83
2021/12/22 05:31:23;;;;;;;13.77;12.70;;;;;;;-6.81;73.63;93456.94;5070818;28;20858;-78
2021/12/22 05:33:50;;;;;;;13.80;12.57;;;;;;;-6.70;73.54;93466.81;5070910;28;20196;-78
2021/12/22 05:36:16;;;;;;;14.53;13.23;;;;;;;-7.03;73.81;93422.78;5058147;28;20240;-80
2021/12/22 05:38:42;;;;;;;13.10;11.93;;;;;;;-6.66;73.99;93470.59;5051240;28;20544;-80
2021/12/22 05:41:07;;;;;;;14.83;13.33;;;;;;;-7.19;73.24;93381.38;5058747;28;20304;-78
2021/12/22 05:43:33;;;;;;;14.83;13.43;;;;;;;-6.94;73.91;93421.84;5068471;28;20275;-79
2021/12/22 05:45:59;;;;;;;14.53;13.03;;;;;;;-6.99;74.06;93426.59;5069376;28;20236;-80
2021/12/22 05:48:24;;;;;;;14.37;13.10;;;;;;;-6.72;73.74;93469.50;5069836;28;20786;-77
2021/12/22 05:50:52;;;;;;;15.00;13.47;;;;;;;-6.78;73.29;93449.81;5067235;28;20244;-77
2021/12/22 05:53:18;;;;;;;14.07;12.73;;;;;;;-7.33;73.49;93369.28;5068476;28;20190;-78
2021/12/22 05:55:43;;;;;;;14.67;13.07;;;;;;;-6.41;73.90;93434.16;5068590;28;20220;-77
2021/12/22 05:58:09;;;;;;;14.30;12.27;;;;;;;-6.51;72.27;93469.06;5069855;28;20247;-78
2021/12/22 06:00:35;;;;;;;13.23;12.40;;;;;;;-6.48;72.27;93458.59;5068280;28;20265;-77
2021/12/22 06:03:00;;;;;;;14.83;12.10;;;;;;;-6.63;72.45;93454.28;5068135;28;20228;-80
2021/12/22 06:05:26;;;;;;;14.60;13.20;;;;;;;-7.50;72.75;93332.13;5068170;28;20648;-80
2021/12/22 06:07:51;;;;;;;12.50;11.60;;;;;;;-6.92;72.81;93430.13;5068876;28;20185;-80
2021/12/22 06:10:17;;;;;;;16.90;13.40;;;;;;;-6.70;72.77;93469.34;5070125;28;20185;-81
2021/12/22 06:12:42;;;;;;;13.60;12.20;;;;;;;-6.57;73.07;93463.81;5069593;28;20213;-81
2021/12/22 06:15:08;;;;;;;14.00;12.80;;;;;;;-6.68;73.47;93464.91;5069709;28;20193;-81
2021/12/22 06:17:33;;;;;;;13.13;11.93;;;;;;;-6.60;72.80;93474.28;5068722;28;20221;-80
2021/12/22 06:19:59;;;;;;;13.33;12.20;;;;;;;-6.69;72.86;93469.19;5068918;28;20200;-80
2021/12/22 06:22:26;;;;;;;14.23;13.03;;;;;;;-6.52;72.67;93485.25;5069037;28;20307;-79
2021/12/22 06:24:52;;;;;;;13.07;12.07;;;;;;;-6.56;72.95;93486.53;5069964;28;20193;-79
2021/12/22 06:27:17;;;;;;;13.03;12.03;;;;;;;-6.63;72.95;93488.09;5068205;28;20226;-80
2021/12/22 06:29:42;;;;;;;13.63;12.63;;;;;;;-6.70;73.19;93464.28;5070175;28;20205;-83
2021/12/22 06:32:09;;;;;;;15.10;13.60;;;;;;;-6.42;72.47;93496.06;5070174;28;20281;-80
2021/12/22 06:34:34;;;;;;;13.73;12.60;;;;;;;-6.44;72.09;93472.56;5070205;28;20190;-81
2021/12/22 06:37:00;;;;;;;20.67;14.40;;;;;;;-6.41;71.97;93479.88;5069147;28;20217;-83
2021/12/22 06:39:25;;;;;;;17.27;14.93;;;;;;;-6.24;71.58;93490.88;5069889;28;20193;-81
2021/12/22 06:41:51;;;;;;;19.07;15.13;;;;;;;-6.27;71.77;93486.88;5068999;28;20296;-77
2021/12/22 06:44:16;;;;;;;18.60;16.30;;;;;;;-6.41;71.43;93428.31;5067878;28;20264;-80
2021/12/22 06:46:43;;;;;;;18.03;16.20;;;;;;;-6.04;71.99;93498.03;5069969;28;20217;-80
2021/12/22 06:49:10;;;;;;;21.70;15.80;;;;;;;-5.91;72.14;93485.66;5069854;28;20178;-75
2021/12/22 06:51:36;;;;;;;21.17;17.30;;;;;;;-5.95;71.65;93491.22;5068730;28;20291;-79
2021/12/22 06:54:02;;;;;;;20.77;17.13;;;;;;;-6.16;71.93;93442.63;5069035;28;20203;-80
2021/12/22 06:56:28;;;;;;;21.03;16.73;;;;;;;-5.66;71.73;93487.19;5069332;28;20244;-85
2021/12/22 06:58:54;;;;;;;27.17;18.43;;;;;;;-5.37;71.85;93497.63;5067856;28;20197;-87
2021/12/22 07:01:21;;;;;;;22.33;18.30;;;;;;;-5.51;71.58;93495.75;5068551;28;20270;-87
2021/12/22 07:03:46;;;;;;;24.27;19.67;;;;;;;-5.85;71.79;93462.13;5068669;28;20252;-84
2021/12/22 07:06:12;;;;;;;24.97;19.37;;;;;;;-5.50;72.04;93468.59;5066386;28;20232;-81
2021/12/22 07:08:38;;;;;;;25.70;21.03;;;;;;;-5.28;71.54;93501.78;5068873;28;20193;-76
2021/12/22 07:11:03;;;;;;;25.00;20.33;;;;;;;-5.42;71.09;93478.75;5065627;28;20224;-80
2021/12/22 07:13:30;;;;;;;30.90;23.07;;;;;;;-5.13;71.01;93497.59;5068557;28;20801;-81
2021/12/22 07:15:56;;;;;;;23.50;19.37;;;;;;;-5.02;69.57;93481.19;5067616;28;20225;-80
2021/12/22 07:18:21;;;;;;;24.93;20.17;;;;;;;-5.34;69.34;93456.63;5068104;28;20209;-79
2021/12/22 07:20:47;;;;;;;20.27;17.83;;;;;;;-5.51;69.03;93424.53;5068291;28;20229;-81
2021/12/22 07:23:12;;;;;;;20.50;17.20;;;;;;;-5.53;69.05;93428.22;5069331;28;20728;-82
2021/12/22 07:25:38;;;;;;;19.83;17.70;;;;;;;-4.87;69.81;93504.22;5069394;28;20236;-83
2021/12/22 07:28:04;;;;;;;20.77;18.53;;;;;;;-5.03;67.67;93434.56;5069532;28;20268;-83
2021/12/22 07:30:29;;;;;;;20.97;14.23;;;;;;;-4.58;67.39;93507.75;5068737;28;20233;-83
2021/12/22 07:32:55;;;;;;;18.07;16.27;;;;;;;-4.77;67.73;93469.16;5068726;28;20185;-83
2021/12/22 07:35:41;;;;;;;18.30;16.43;;;;;;;-4.29;66.74;93492.63;5069098;28;20197;-82
2021/12/22 07:38:24;;;;;;;19.30;16.63;;;;;;;-4.46;67.98;93508.16;5068922;28;20261;-82
2021/12/22 07:40:52;;;;;;;19.83;17.73;;;;;;;-4.15;67.46;93496.22;5068339;28;20232;-82
2021/12/22 07:43:17;;;;;;;26.27;15.33;;;;;;;-3.80;64.66;93483.69;5067982;28;20215;-82
2021/12/22 07:45:44;;;;;;;18.53;16.53;;;;;;;-3.49;63.40;93499.69;5069280;28;20285;-82
2021/12/22 07:48:10;;;;;;;18.77;16.97;;;;;;;-3.95;64.27;93452.25;5068220;28;20189;-82
2021/12/22 07:50:35;;;;;;;16.97;15.10;;;;;;;-4.04;63.34;93417.59;5069250;28;20233;-82
2021/12/22 07:53:01;;;;;;;16.17;14.60;;;;;;;-3.60;63.26;93481.47;5069015;28;20185;-82
2021/12/22 07:55:26;;;;;;;18.20;16.40;;;;;;;-3.41;62.96;93501.41;5068685;28;20311;-81
2021/12/22 07:57:52;;;;;;;18.80;17.17;;;;;;;-3.67;62.99;93470.34;5068447;28;20233;-81
2021/12/22 08:00:17;;;;;;;20.67;15.60;;;;;;;-3.91;63.46;93439.97;5068306;28;20223;-78
2021/12/22 08:02:43;;;;;;;18.67;16.87;;;;;;;-3.10;60.91;93509.72;5068807;28;20215;-80
2021/12/22 08:05:08;;;;;;;17.60;15.97;;;;;;;-3.57;61.56;93471.72;5069010;28;20197;-79
2021/12/22 08:07:34;;;;;;;23.20;17.87;;;;;;;-3.42;62.06;93474.28;5068537;28;20197;-76
2021/12/22 08:10:01;;;;;;;28.10;17.87;;;;;;;-3.62;62.66;93451.03;5068004;28;20181;-80
2021/12/22 08:12:27;;;;;;;21.13;16.13;;;;;;;-2.92;60.95;93512.72;5067764;28;20225;-78
2021/12/22 08:14:52;;;;;;;25.17;18.07;;;;;;;-2.95;61.01;93514.84;5069509;28;20224;-78
2021/12/22 08:17:18;;;;;;;20.53;16.40;;;;;;;-3.12;60.37;93464.91;5068753;28;20225;-78
2021/12/22 08:19:45;;;;;;;20.23;17.70;;;;;;;-3.09;61.56;93507.94;5069163;28;20185;-79
2021/12/22 08:22:10;;;;;;;18.00;16.20;;;;;;;-2.94;61.33;93519.78;5067556;28;20221;-80
2021/12/22 08:24:37;;;;;;;19.50;17.53;;;;;;;-2.68;60.83;93522.69;5068883;28;20198;-80
2021/12/22 08:27:03;;;;;;;20.80;18.63;;;;;;;-2.41;60.04;93522.06;5067343;28;20241;-80
2021/12/22 08:29:29;;;;;;;27.13;17.00;;;;;;;-2.14;59.42;93528.25;5068876;28;20178;-80
2021/12/22 08:31:54;;;;;;;20.57;18.07;;;;;;;-2.46;60.32;93508.22;5067454;28;20243;-80
2021/12/22 08:34:28;;;;;;;25.40;18.63;;;;;;;-2.28;59.65;93529.09;5068863;28;20264;-80
2021/12/22 08:39:38;;;;;;;22.87;19.50;;;;;;;-2.13;60.15;93529.84;5068273;28;20256;-80
2021/12/22 08:42:04;;;;;;;23.73;18.10;;;;;;;-2.09;59.43;93510.63;5068361;28;20210;-80
2021/12/22 08:44:29;;;;;;;26.87;19.77;;;;;;;-1.80;58.39;93526.69;5069028;28;20203;-80
2021/12/22 08:46:56;;;;;;;25.33;20.53;;;;;;;-1.99;57.92;93478.66;5070310;28;20263;-80
2021/12/22 08:49:22;;;;;;;26.10;18.07;;;;;;;-1.66;58.71;93551.44;5069689;28;20253;-80
2021/12/22 08:51:49;;;;;;;24.40;21.10;;;;;;;-1.42;57.93;93537.47;5067433;28;20237;-81
2021/12/22 08:54:14;;;;;;;24.50;20.27;;;;;;;-1.58;57.08;93524.13;5067697;28;20186;-80
2021/12/22 08:56:41;;;;;;;23.87;19.50;;;;;;;-2.06;57.66;93477.00;5067891;28;20229;-80
2021/12/22 08:59:08;;;;;;;28.27;20.10;;;;;;;-2.04;58.69;93544.13;5068646;28;20192;-80
2021/12/22 09:01:33;;;;;;;31.50;20.97;;;;;;;-2.59;60.35;93543.84;5067719;28;20225;-80
2021/12/22 09:03:59;;;;;;;30.43;18.87;;;;;;;-2.18;59.41;93545.72;5069810;28;20200;-80
2021/12/22 09:06:25;;;;;;;26.50;21.30;;;;;;;-2.45;59.18;93489.34;5067532;28;20247;-79
2021/12/22 09:08:52;;;;;;;26.97;20.70;;;;;;;-2.14;59.88;93541.84;5068780;28;20276;-80
2021/12/22 09:11:18;;;;;;;25.13;20.83;;;;;;;-2.36;59.90;93504.41;5068323;28;20248;-80
2021/12/22 09:13:43;;;;;;;28.70;22.63;;;;;;;-2.63;59.38;93483.84;5068235;28;20198;-80
2021/12/22 09:16:11;;;;;;;28.93;21.50;;;;;;;-2.30;59.43;93508.00;5068738;28;20240;-80
2021/12/22 09:18:37;;;;;;;23.63;20.90;;;;;;;-2.29;60.23;93546.19;5067266;28;20213;-80
2021/12/22 09:21:04;;;;;;;25.57;21.30;;;;;;;-2.49;60.51;93526.47;5068741;28;20251;-80
2021/12/22 09:23:29;;;;;;;30.10;22.33;;;;;;;-2.22;59.71;93547.06;5071903;28;20205;-80
2021/12/22 09:25:55;;;;;;;29.97;20.87;;;;;;;-2.20;60.15;93527.22;5071338;28;20271;-80
2021/12/22 09:28:20;;;;;;;27.80;20.37;;;;;;;-1.97;59.05;93481.84;5071252;28;20201;-80
2021/12/22 09:30:46;;;;;;;30.67;21.70;;;;;;;-1.68;57.70;93503.94;5070594;28;20225;-80
2021/12/22 09:33:14;;;;;;;26.90;20.87;;;;;;;-1.49;58.05;93525.59;5072128;28;20189;-80
2021/12/22 09:35:42;;;;;;;24.10;21.00;;;;;;;-1.54;58.49;93531.25;5071728;28;20233;-79
2021/12/22 09:38:08;;;;;;;25.63;20.03;;;;;;;-1.30;58.04;93522.41;5070870;28;20201;-80
2021/12/22 09:40:34;;;;;;;29.43;20.60;;;;;;;-1.26;58.87;93523.63;5071125;28;20231;-80
2021/12/22 09:43:00;;;;;;;27.40;21.23;;;;;;;-1.06;56.14;93501.50;5072206;28;20185;-80
2021/12/22 09:45:26;;;;;;;27.30;21.73;;;;;;;-1.07;55.82;93502.47;5070393;28;20255;-79
2021/12/22 09:53:25;;;;;;;24.77;21.87;;;;;;;-1.17;56.94;93513.06;5068915;28;20256;-79
2021/12/22 09:55:51;;;;;;;28.20;21.87;;;;;;;-1.00;56.98;93508.44;5070466;28;20225;-79
2021/12/22 09:58:16;;;;;;;26.57;20.43;;;;;;;-0.27;54.70;93521.47;5071520;28;20216;-79
2021/12/22 10:00:43;;;;;;;28.40;22.23;;;;;;;-0.51;53.48;93514.25;5070269;28;20222;-80
2021/12/22 10:03:10;;;;;;;28.10;21.03;;;;;;;-0.73;55.29;93512.78;5071795;28;20194;-80
2021/12/22 10:05:37;;;;;;;29.17;22.23;;;;;;;-0.57;54.63;93515.00;5071443;28;20249;-80
2021/12/22 10:08:18;;;;;;;31.00;21.43;;;;;;;-0.56;54.76;93501.22;5071917;28;20193;-80
2021/12/22 10:10:53;;;;;;;25.13;19.10;;;;;;;-0.34;53.48;93465.00;5070691;28;20236;-79
2021/12/22 10:13:25;;;;;;;24.90;20.40;;;;;;;-0.74;54.66;93457.34;5070222;28;20191;-79
2021/12/22 10:15:51;;;;;;;25.67;20.53;;;;;;;-0.46;54.51;93506.78;5067499;28;20258;-79
2021/12/22 10:18:42;;;;;;;25.80;21.37;;;;;;;-0.27;53.28;93506.09;5070889;28;20280;-77
2021/12/22 10:21:15;;;;;;;30.77;19.30;;;;;;;-0.62;53.12;93466.88;5067459;28;20232;-78
2021/12/22 10:23:46;;;;;;;23.97;19.20;;;;;;;-0.38;53.76;93504.88;5069660;28;20192;-79
2021/12/22 10:26:21;;;;;;;28.50;21.40;;;;;;;-0.47;53.58;93500.09;5069878;28;20217;-78
2021/12/22 10:28:49;;;;;;;26.60;20.23;;;;;;;-0.32;54.25;93498.16;5070074;28;20185;-79
2021/12/22 10:31:16;;;;;;;31.13;19.60;;;;;;;-0.40;53.62;93501.69;5068213;28;20229;-79
2021/12/22 10:33:42;;;;;;;28.47;20.40;;;;;;;-0.32;53.48;93493.03;5069895;28;20193;-79
2021/12/22 10:36:21;;;;;;;25.57;21.33;;;;;;;-0.43;54.89;93494.38;5070049;28;20315;-79
2021/12/22 10:38:59;;;;;;;27.77;21.33;;;;;;;-0.08;52.73;93495.13;5070291;28;20284;-80
2021/12/22 10:41:28;;;;;;;31.67;21.50;;;;;;;-0.05;52.80;93484.47;5070181;28;20247;-79
2021/12/22 10:43:54;;;;;;;27.93;22.70;;;;;;;0.12;52.07;93479.75;5068706;28;20204;-79
2021/12/22 10:46:25;;;;;;;22.70;20.43;;;;;;;-0.45;53.40;93498.91;5070459;28;20776;-78
2021/12/22 10:49:17;;;;;;;24.50;19.80;;;;;;;0.15;51.94;93492.19;5069764;28;20273;-80
2021/12/22 10:51:45;;;;;;;25.10;20.63;;;;;;;-0.03;52.24;93487.59;5070187;28;20228;-80
2021/12/22 10:54:13;;;;;;;39.80;21.33;;;;;;;-0.62;53.11;93419.91;5069759;28;20588;-81
2021/12/22 10:56:45;;;;;;;27.40;21.47;;;;;;;-0.09;52.07;93488.38;5070049;28;20221;-79
2021/12/22 10:59:19;;;;;;;29.80;20.57;;;;;;;-0.77;53.96;93432.09;5069525;28;20623;-79
2021/12/22 11:01:54;;;;;;;25.00;21.00;;;;;;;0.08;52.47;93479.34;5069079;28;20229;-79
2021/12/22 11:04:26;;;;;;;25.30;21.90;;;;;;;0.19;51.71;93481.34;5069920;28;20200;-78
2021/12/22 11:06:54;;;;;;;29.60;20.80;;;;;;;-0.23;51.18;93428.56;5070055;28;20300;-79
2021/12/22 11:09:22;;;;;;;28.97;22.67;;;;;;;-0.15;52.21;93468.63;5069818;28;20193;-79
2021/12/22 11:11:58;;;;;;;38.60;23.53;;;;;;;-0.20;52.38;93470.97;5069598;28;20275;-80
2021/12/22 11:14:27;;;;;;;34.00;22.93;;;;;;;-0.23;53.04;93467.03;5069466;28;20192;-78
2021/12/22 11:17:02;;;;;;;31.10;23.23;;;;;;;-0.11;52.60;93464.72;5070238;28;20240;-79
2021/12/22 11:20:02;;;;;;;25.57;22.67;;;;;;;-0.06;52.09;93463.13;5069532;28;20189;-79
2021/12/22 11:22:39;;;;;;;32.77;24.17;;;;;;;-0.10;53.47;93463.72;5061375;28;20275;-78
2021/12/22 11:25:11;;;;;;;44.97;23.90;;;;;;;0.03;52.30;93449.13;5061431;28;20208;-79
2021/12/22 11:27:38;;;;;;;34.73;24.60;;;;;;;0.33;51.96;93459.06;5068944;28;20209;-75
2021/12/22 11:30:04;;;;;;;32.30;25.27;;;;;;;0.33;51.52;93461.66;5069206;28;20186;-76
2021/12/22 11:32:31;;;;;;;34.53;25.20;;;;;;;0.47;51.24;93456.31;5069428;28;20220;-76
2021/12/22 11:35:00;;;;;;;36.47;25.27;;;;;;;0.24;52.32;93453.31;5068558;28;20241;-74
2021/12/22 11:37:27;;;;;;;33.17;24.57;;;;;;;0.02;53.40;93454.47;5068047;28;20483;-75
2021/12/22 11:39:54;;;;;;;48.40;27.20;;;;;;;-0.25;53.14;93452.81;5068852;28;20197;-72
2021/12/22 11:42:24;;;;;;;33.97;25.70;;;;;;;-0.01;53.30;93434.31;5069399;28;20276;-75
2021/12/22 11:44:55;;;;;;;38.57;26.70;;;;;;;0.05;51.96;93410.44;5068086;28;20216;-75